sensor_id;sensor_type;location;lat;lon;timestamp;P1;durP1;ratioP1;P2;durP2;ratioP2
50281;SDS011;36176;51.506;10.272;2022-08-11T00:00:58;2.97;;;2.30;;
50281;SDS011;36176;51.506;10.272;2022-08-11T00:03:32;4.30;;;2.30;;
50281;SDS011;36176;51.506;10.272;2022-08-11T00:06:10;2.13;;;1.90;;
50281;SDS011;36176;51.506;10.272;2022-08-11T00:08:40;3.10;;;2.70;;
50281;SDS011;36176;51.506;10.272;2022-08-11T00:11:09;4.47;;;2.00;;
50281;SDS011;36176;51.506;10.272;2022-08-11T00:13:42;2.63;;;2.43;;
50281;SDS011;36176;51.506;10.272;2022-08-11T00:18:50;3.57;;;3.37;;
50281;SDS011;36176;51.506;10.272;2022-08-11T00:21:19;1.77;;;1.67;;
50281;SDS011;36176;51.506;10.272;2022-08-11T00:24:08;2.47;;;1.97;;
50281;SDS011;36176;51.506;10.272;2022-08-11T00:26:36;2.63;;;2.43;;
50281;SDS011;36176;51.506;10.272;2022-08-11T00:29:10;2.03;;;1.50;;
50281;SDS011;36176;51.506;10.272;2022-08-11T00:31:38;2.37;;;1.90;;
50281;SDS011;36176;51.506;10.272;2022-08-11T00:34:12;1.90;;;1.80;;
50281;SDS011;36176;51.506;10.272;2022-08-11T00:36:46;3.23;;;2.30;;
50281;SDS011;36176;51.506;10.272;2022-08-11T00:39:19;4.57;;;2.13;;
50281;SDS011;36176;51.506;10.272;2022-08-11T00:41:58;4.80;;;1.93;;
50281;SDS011;36176;51.506;10.272;2022-08-11T00:44:39;3.90;;;3.63;;
50281;SDS011;36176;51.506;10.272;2022-08-11T00:59:05;3.63;;;3.33;;
50281;SDS011;36176;51.506;10.272;2022-08-11T01:11:45;2.30;;;2.10;;
50281;SDS011;36176;51.506;10.272;2022-08-11T01:14:49;2.47;;;1.80;;
50281;SDS011;36176;51.506;10.272;2022-08-11T01:21:06;5.57;;;3.63;;
50281;SDS011;36176;51.506;10.272;2022-08-11T01:24:07;4.20;;;3.80;;
50281;SDS011;36176;51.506;10.272;2022-08-11T01:27:09;3.90;;;3.57;;
50281;SDS011;36176;51.506;10.272;2022-08-11T01:29:55;3.40;;;1.90;;
50281;SDS011;36176;51.506;10.272;2022-08-11T01:32:55;3.43;;;2.33;;
50281;SDS011;36176;51.506;10.272;2022-08-11T01:36:01;2.97;;;2.40;;
50281;SDS011;36176;51.506;10.272;2022-08-11T01:42:04;3.53;;;2.20;;
50281;SDS011;36176;51.506;10.272;2022-08-11T01:45:31;2.97;;;2.70;;
50281;SDS011;36176;51.506;10.272;2022-08-11T01:48:21;4.60;;;2.30;;
50281;SDS011;36176;51.506;10.272;2022-08-11T01:59:40;2.40;;;2.20;;
50281;SDS011;36176;51.506;10.272;2022-08-11T02:05:25;2.60;;;2.10;;
50281;SDS011;36176;51.506;10.272;2022-08-11T02:08:07;2.73;;;2.53;;
50281;SDS011;36176;51.506;10.272;2022-08-11T02:10:46;4.70;;;2.77;;
50281;SDS011;36176;51.506;10.272;2022-08-11T02:13:41;3.03;;;2.00;;
50281;SDS011;36176;51.506;10.272;2022-08-11T02:21:59;2.67;;;2.43;;
50281;SDS011;36176;51.506;10.272;2022-08-11T02:24:50;2.70;;;2.50;;
50281;SDS011;36176;51.506;10.272;2022-08-11T02:27:26;6.03;;;2.60;;
50281;SDS011;36176;51.506;10.272;2022-08-11T02:30:09;2.57;;;2.37;;
50281;SDS011;36176;51.506;10.272;2022-08-11T02:32:49;2.60;;;2.40;;
50281;SDS011;36176;51.506;10.272;2022-08-11T02:35:57;3.00;;;2.20;;
50281;SDS011;36176;51.506;10.272;2022-08-11T02:38:37;2.60;;;2.30;;
50281;SDS011;36176;51.506;10.272;2022-08-11T02:50:34;2.37;;;2.00;;
50281;SDS011;36176;51.506;10.272;2022-08-11T02:53:08;2.53;;;2.30;;
50281;SDS011;36176;51.506;10.272;2022-08-11T02:58:44;3.00;;;2.30;;
50281;SDS011;36176;51.506;10.272;2022-08-11T03:01:40;2.80;;;2.37;;
50281;SDS011;36176;51.506;10.272;2022-08-11T03:04:17;4.57;;;2.57;;
50281;SDS011;36176;51.506;10.272;2022-08-11T03:07:07;2.97;;;2.73;;
50281;SDS011;36176;51.506;10.272;2022-08-11T03:10:03;2.60;;;2.40;;
50281;SDS011;36176;51.506;10.272;2022-08-11T03:12:35;2.70;;;2.30;;
50281;SDS011;36176;51.506;10.272;2022-08-11T03:15:27;3.80;;;2.47;;
50281;SDS011;36176;51.506;10.272;2022-08-11T03:18:25;4.60;;;2.57;;
50281;SDS011;36176;51.506;10.272;2022-08-11T03:21:08;3.53;;;3.10;;
50281;SDS011;36176;51.506;10.272;2022-08-11T03:31:55;3.57;;;3.27;;
50281;SDS011;36176;51.506;10.272;2022-08-11T03:34:29;2.97;;;2.77;;
50281;SDS011;36176;51.506;10.272;2022-08-11T03:37:45;5.23;;;3.17;;
50281;SDS011;36176;51.506;10.272;2022-08-11T03:46:03;3.33;;;3.03;;
50281;SDS011;36176;51.506;10.272;2022-08-11T03:48:48;3.47;;;2.97;;
50281;SDS011;36176;51.506;10.272;2022-08-11T04:00:10;4.10;;;2.80;;
50281;SDS011;36176;51.506;10.272;2022-08-11T04:05:40;2.80;;;2.20;;
50281;SDS011;36176;51.506;10.272;2022-08-11T04:11:40;3.90;;;3.27;;
50281;SDS011;36176;51.506;10.272;2022-08-11T04:35:56;3.67;;;2.63;;
50281;SDS011;36176;51.506;10.272;2022-08-11T04:42:05;4.40;;;2.83;;
50281;SDS011;36176;51.506;10.272;2022-08-11T04:45:09;2.53;;;2.33;;
50281;SDS011;36176;51.506;10.272;2022-08-11T05:13:43;3.17;;;2.00;;
50281;SDS011;36176;51.506;10.272;2022-08-11T05:19:30;3.20;;;1.80;;
50281;SDS011;36176;51.506;10.272;2022-08-11T05:22:17;2.00;;;1.70;;
50281;SDS011;36176;51.506;10.272;2022-08-11T05:25:06;4.17;;;1.80;;
50281;SDS011;36176;51.506;10.272;2022-08-11T05:31:19;2.17;;;1.75;;
50281;SDS011;36176;51.506;10.272;2022-08-11T05:34:11;2.95;;;1.70;;
50281;SDS011;36176;51.506;10.272;2022-08-11T05:37:15;4.63;;;2.03;;
50281;SDS011;36176;51.506;10.272;2022-08-11T05:39:57;9.23;;;1.80;;
50281;SDS011;36176;51.506;10.272;2022-08-11T05:42:50;5.35;;;2.08;;
50281;SDS011;36176;51.506;10.272;2022-08-11T05:45:55;2.08;;;1.70;;
50281;SDS011;36176;51.506;10.272;2022-08-11T05:48:52;3.30;;;1.77;;
50281;SDS011;36176;51.506;10.272;2022-08-11T05:51:42;4.80;;;1.83;;
50281;SDS011;36176;51.506;10.272;2022-08-11T05:54:31;2.63;;;1.60;;
50281;SDS011;36176;51.506;10.272;2022-08-11T05:57:26;4.43;;;1.90;;
50281;SDS011;36176;51.506;10.272;2022-08-11T06:00:16;2.20;;;1.50;;
50281;SDS011;36176;51.506;10.272;2022-08-11T06:02:52;5.55;;;1.80;;
50281;SDS011;36176;51.506;10.272;2022-08-11T06:05:21;6.15;;;2.03;;
50281;SDS011;36176;51.506;10.272;2022-08-11T06:07:53;4.43;;;1.77;;
50281;SDS011;36176;51.506;10.272;2022-08-11T06:10:24;7.03;;;1.80;;
50281;SDS011;36176;51.506;10.272;2022-08-11T06:12:59;6.32;;;1.63;;
50281;SDS011;36176;51.506;10.272;2022-08-11T06:15:28;6.70;;;1.80;;
50281;SDS011;36176;51.506;10.272;2022-08-11T06:18:00;2.72;;;1.60;;
50281;SDS011;36176;51.506;10.272;2022-08-11T06:20:29;2.25;;;1.40;;
50281;SDS011;36176;51.506;10.272;2022-08-11T06:23:03;4.00;;;1.42;;
50281;SDS011;36176;51.506;10.272;2022-08-11T06:25:34;2.95;;;1.40;;
50281;SDS011;36176;51.506;10.272;2022-08-11T06:28:03;2.50;;;1.60;;
50281;SDS011;36176;51.506;10.272;2022-08-11T06:30:33;4.55;;;1.60;;
50281;SDS011;36176;51.506;10.272;2022-08-11T06:33:10;4.40;;;1.70;;
50281;SDS011;36176;51.506;10.272;2022-08-11T06:38:37;1.73;;;1.52;;
50281;SDS011;36176;51.506;10.272;2022-08-11T06:41:18;6.25;;;1.50;;
50281;SDS011;36176;51.506;10.272;2022-08-11T06:46:40;2.38;;;1.38;;
50281;SDS011;36176;51.506;10.272;2022-08-11T06:49:19;3.83;;;1.30;;
50281;SDS011;36176;51.506;10.272;2022-08-11T06:52:09;1.77;;;1.50;;
50281;SDS011;36176;51.506;10.272;2022-08-11T06:55:06;3.90;;;1.48;;
50281;SDS011;36176;51.506;10.272;2022-08-11T06:57:57;5.13;;;1.95;;
50281;SDS011;36176;51.506;10.272;2022-08-11T07:00:43;3.38;;;1.73;;
50281;SDS011;36176;51.506;10.272;2022-08-11T07:03:17;3.85;;;1.80;;
50281;SDS011;36176;51.506;10.272;2022-08-11T07:05:48;2.50;;;1.52;;
50281;SDS011;36176;51.506;10.272;2022-08-11T07:11:39;2.13;;;1.63;;
50281;SDS011;36176;51.506;10.272;2022-08-11T07:14:33;2.08;;;1.48;;
50281;SDS011;36176;51.506;10.272;2022-08-11T07:17:26;1.98;;;1.50;;
50281;SDS011;36176;51.506;10.272;2022-08-11T07:20:02;3.45;;;1.70;;
50281;SDS011;36176;51.506;10.272;2022-08-11T07:22:57;2.67;;;1.60;;
50281;SDS011;36176;51.506;10.272;2022-08-11T07:25:46;3.50;;;1.80;;
50281;SDS011;36176;51.506;10.272;2022-08-11T07:28:38;6.13;;;2.10;;
50281;SDS011;36176;51.506;10.272;2022-08-11T07:34:25;5.63;;;1.80;;
50281;SDS011;36176;51.506;10.272;2022-08-11T07:36:59;5.78;;;1.90;;
50281;SDS011;36176;51.506;10.272;2022-08-11T07:39:34;8.63;;;1.90;;
50281;SDS011;36176;51.506;10.272;2022-08-11T07:42:19;8.13;;;1.98;;
50281;SDS011;36176;51.506;10.272;2022-08-11T07:44:54;5.25;;;1.85;;
50281;SDS011;36176;51.506;10.272;2022-08-11T07:47:40;6.70;;;1.90;;
50281;SDS011;36176;51.506;10.272;2022-08-11T07:50:33;3.92;;;1.98;;
50281;SDS011;36176;51.506;10.272;2022-08-11T07:53:21;3.60;;;2.00;;
50281;SDS011;36176;51.506;10.272;2022-08-11T07:55:49;4.40;;;2.10;;
50281;SDS011;36176;51.506;10.272;2022-08-11T07:58:20;4.78;;;1.98;;
50281;SDS011;36176;51.506;10.272;2022-08-11T08:01:19;3.88;;;2.00;;
50281;SDS011;36176;51.506;10.272;2022-08-11T08:04:08;3.47;;;1.80;;
50281;SDS011;36176;51.506;10.272;2022-08-11T08:06:59;5.18;;;1.98;;
50281;SDS011;36176;51.506;10.272;2022-08-11T08:09:48;5.43;;;1.80;;
50281;SDS011;36176;51.506;10.272;2022-08-11T08:12:39;3.33;;;1.92;;
50281;SDS011;36176;51.506;10.272;2022-08-11T08:15:26;4.40;;;1.58;;
50281;SDS011;36176;51.506;10.272;2022-08-11T08:18:13;5.68;;;1.60;;
50281;SDS011;36176;51.506;10.272;2022-08-11T08:20:53;5.25;;;1.90;;
50281;SDS011;36176;51.506;10.272;2022-08-11T08:23:31;1.83;;;1.65;;
50281;SDS011;36176;51.506;10.272;2022-08-11T08:26:00;3.50;;;1.65;;
50281;SDS011;36176;51.506;10.272;2022-08-11T08:29:01;2.30;;;1.80;;
50281;SDS011;36176;51.506;10.272;2022-08-11T08:31:51;2.95;;;1.80;;
50281;SDS011;36176;51.506;10.272;2022-08-11T08:34:20;2.10;;;1.40;;
50281;SDS011;36176;51.506;10.272;2022-08-11T08:36:58;3.00;;;1.60;;
50281;SDS011;36176;51.506;10.272;2022-08-11T08:39:27;3.38;;;1.60;;
50281;SDS011;36176;51.506;10.272;2022-08-11T08:41:55;4.70;;;1.67;;
50281;SDS011;36176;51.506;10.272;2022-08-11T08:44:24;3.92;;;1.50;;
50281;SDS011;36176;51.506;10.272;2022-08-11T08:47:05;3.10;;;1.60;;
50281;SDS011;36176;51.506;10.272;2022-08-11T08:49:38;5.43;;;1.70;;
50281;SDS011;36176;51.506;10.272;2022-08-11T08:52:22;4.80;;;2.03;;
50281;SDS011;36176;51.506;10.272;2022-08-11T08:55:02;3.47;;;1.70;;
50281;SDS011;36176;51.506;10.272;2022-08-11T08:57:32;6.65;;;1.50;;
50281;SDS011;36176;51.506;10.272;2022-08-11T09:00:06;4.55;;;1.92;;
50281;SDS011;36176;51.506;10.272;2022-08-11T09:02:38;5.43;;;2.05;;
50281;SDS011;36176;51.506;10.272;2022-08-11T09:05:06;4.78;;;1.95;;
50281;SDS011;36176;51.506;10.272;2022-08-11T09:07:36;4.72;;;1.73;;
50281;SDS011;36176;51.506;10.272;2022-08-11T09:10:07;3.92;;;1.90;;
50281;SDS011;36176;51.506;10.272;2022-08-11T09:12:37;5.70;;;1.90;;
50281;SDS011;36176;51.506;10.272;2022-08-11T09:15:14;2.92;;;1.95;;
50281;SDS011;36176;51.506;10.272;2022-08-11T09:17:52;3.85;;;1.73;;
50281;SDS011;36176;51.506;10.272;2022-08-11T09:20:32;7.78;;;2.20;;
50281;SDS011;36176;51.506;10.272;2022-08-11T09:23:05;5.82;;;2.10;;
50281;SDS011;36176;51.506;10.272;2022-08-11T09:26:15;4.97;;;2.10;;
50281;SDS011;36176;51.506;10.272;2022-08-11T09:29:02;5.25;;;2.10;;
50281;SDS011;36176;51.506;10.272;2022-08-11T09:31:32;3.97;;;2.08;;
50281;SDS011;36176;51.506;10.272;2022-08-11T09:34:06;4.75;;;2.83;;
50281;SDS011;36176;51.506;10.272;2022-08-11T09:36:37;6.38;;;2.00;;
50281;SDS011;36176;51.506;10.272;2022-08-11T09:39:26;3.25;;;1.90;;
50281;SDS011;36176;51.506;10.272;2022-08-11T09:42:13;3.38;;;1.88;;
50281;SDS011;36176;51.506;10.272;2022-08-11T09:44:42;6.93;;;1.92;;
50281;SDS011;36176;51.506;10.272;2022-08-11T09:47:20;7.57;;;2.72;;
50281;SDS011;36176;51.506;10.272;2022-08-11T09:49:56;4.88;;;1.80;;
50281;SDS011;36176;51.506;10.272;2022-08-11T09:52:28;6.78;;;2.10;;
50281;SDS011;36176;51.506;10.272;2022-08-11T09:54:57;8.77;;;2.25;;
50281;SDS011;36176;51.506;10.272;2022-08-11T09:57:26;3.80;;;2.10;;
50281;SDS011;36176;51.506;10.272;2022-08-11T10:00:13;2.85;;;2.13;;
50281;SDS011;36176;51.506;10.272;2022-08-11T10:02:42;3.92;;;3.20;;
50281;SDS011;36176;51.506;10.272;2022-08-11T10:05:14;5.63;;;2.67;;
50281;SDS011;36176;51.506;10.272;2022-08-11T10:08:04;4.85;;;2.10;;
50281;SDS011;36176;51.506;10.272;2022-08-11T13:36:34;6.47;;;4.80;;
50281;SDS011;36176;51.506;10.272;2022-08-11T13:39:02;7.25;;;2.00;;
50281;SDS011;36176;51.506;10.272;2022-08-11T13:41:34;5.53;;;2.10;;
50281;SDS011;36176;51.506;10.272;2022-08-11T13:44:07;4.38;;;2.05;;
50281;SDS011;36176;51.506;10.272;2022-08-11T13:46:43;4.45;;;2.22;;
50281;SDS011;36176;51.506;10.272;2022-08-11T13:49:19;5.15;;;2.17;;
50281;SDS011;36176;51.506;10.272;2022-08-11T13:51:47;35.85;;;3.00;;
50281;SDS011;36176;51.506;10.272;2022-08-11T13:54:19;6.80;;;1.90;;
50281;SDS011;36176;51.506;10.272;2022-08-11T13:56:49;3.88;;;2.05;;
50281;SDS011;36176;51.506;10.272;2022-08-11T13:59:22;3.13;;;2.05;;
50281;SDS011;36176;51.506;10.272;2022-08-11T14:02:03;4.10;;;2.08;;
50281;SDS011;36176;51.506;10.272;2022-08-11T14:04:58;6.88;;;1.92;;
50281;SDS011;36176;51.506;10.272;2022-08-11T14:07:31;4.63;;;2.33;;
50281;SDS011;36176;51.506;10.272;2022-08-11T14:10:06;11.73;;;8.90;;
50281;SDS011;36176;51.506;10.272;2022-08-11T14:12:40;5.88;;;2.15;;
50281;SDS011;36176;51.506;10.272;2022-08-11T14:15:31;2.47;;;1.80;;
50281;SDS011;36176;51.506;10.272;2022-08-11T14:18:07;5.97;;;2.00;;
50281;SDS011;36176;51.506;10.272;2022-08-11T14:20:53;3.75;;;1.83;;
50281;SDS011;36176;51.506;10.272;2022-08-11T14:23:41;5.55;;;2.10;;
50281;SDS011;36176;51.506;10.272;2022-08-11T14:26:16;3.88;;;1.67;;
50281;SDS011;36176;51.506;10.272;2022-08-11T14:28:54;3.58;;;2.05;;
50281;SDS011;36176;51.506;10.272;2022-08-11T14:31:29;5.47;;;4.38;;
50281;SDS011;36176;51.506;10.272;2022-08-11T14:34:04;4.25;;;2.10;;
50281;SDS011;36176;51.506;10.272;2022-08-11T14:36:43;5.70;;;3.30;;
50281;SDS011;36176;51.506;10.272;2022-08-11T14:39:18;2.10;;;1.80;;
50281;SDS011;36176;51.506;10.272;2022-08-11T14:42:04;5.90;;;1.90;;
50281;SDS011;36176;51.506;10.272;2022-08-11T14:44:58;2.30;;;1.80;;
50281;SDS011;36176;51.506;10.272;2022-08-11T14:47:49;5.90;;;2.00;;
50281;SDS011;36176;51.506;10.272;2022-08-11T14:50:25;4.07;;;2.63;;
50281;SDS011;36176;51.506;10.272;2022-08-11T14:52:57;7.32;;;2.20;;
50281;SDS011;36176;51.506;10.272;2022-08-11T14:55:27;12.15;;;2.30;;
50281;SDS011;36176;51.506;10.272;2022-08-11T14:58:18;4.50;;;1.80;;
50281;SDS011;36176;51.506;10.272;2022-08-11T15:00:48;7.82;;;2.53;;
50281;SDS011;36176;51.506;10.272;2022-08-11T15:03:22;4.13;;;1.95;;
50281;SDS011;36176;51.506;10.272;2022-08-11T15:05:55;5.90;;;2.10;;
50281;SDS011;36176;51.506;10.272;2022-08-11T15:08:32;4.10;;;1.98;;
50281;SDS011;36176;51.506;10.272;2022-08-11T15:11:21;3.97;;;2.10;;
50281;SDS011;36176;51.506;10.272;2022-08-11T15:14:10;8.30;;;5.55;;
50281;SDS011;36176;51.506;10.272;2022-08-11T15:16:40;3.92;;;2.50;;
50281;SDS011;36176;51.506;10.272;2022-08-11T15:19:32;5.32;;;2.10;;
50281;SDS011;36176;51.506;10.272;2022-08-11T15:22:09;5.07;;;2.03;;
50281;SDS011;36176;51.506;10.272;2022-08-11T15:24:57;5.70;;;4.90;;
50281;SDS011;36176;51.506;10.272;2022-08-11T15:27:25;6.95;;;2.10;;
50281;SDS011;36176;51.506;10.272;2022-08-11T15:30:19;3.13;;;2.00;;
50281;SDS011;36176;51.506;10.272;2022-08-11T15:33:07;4.70;;;2.03;;
50281;SDS011;36176;51.506;10.272;2022-08-11T15:35:59;4.47;;;2.08;;
50281;SDS011;36176;51.506;10.272;2022-08-11T15:38:50;6.35;;;1.88;;
50281;SDS011;36176;51.506;10.272;2022-08-11T15:42:01;5.78;;;2.10;;
50281;SDS011;36176;51.506;10.272;2022-08-11T15:44:53;9.02;;;2.72;;
50281;SDS011;36176;51.506;10.272;2022-08-11T15:47:47;3.70;;;2.10;;
50281;SDS011;36176;51.506;10.272;2022-08-11T15:50:31;3.67;;;2.00;;
50281;SDS011;36176;51.506;10.272;2022-08-11T15:53:08;3.00;;;2.20;;
50281;SDS011;36176;51.506;10.272;2022-08-11T15:55:48;5.57;;;1.98;;
50281;SDS011;36176;51.506;10.272;2022-08-11T15:58:17;6.30;;;2.15;;
50281;SDS011;36176;51.506;10.272;2022-08-11T16:01:04;6.72;;;2.50;;
50281;SDS011;36176;51.506;10.272;2022-08-11T16:04:03;2.60;;;1.90;;
50281;SDS011;36176;51.506;10.272;2022-08-11T16:06:50;3.30;;;1.90;;
50281;SDS011;36176;51.506;10.272;2022-08-11T16:09:38;5.25;;;2.10;;
50281;SDS011;36176;51.506;10.272;2022-08-11T16:12:20;4.32;;;2.80;;
50281;SDS011;36176;51.506;10.272;2022-08-11T16:14:51;5.18;;;2.33;;
50281;SDS011;36176;51.506;10.272;2022-08-11T16:17:47;3.63;;;2.00;;
50281;SDS011;36176;51.506;10.272;2022-08-11T16:20:21;1.98;;;1.77;;
50281;SDS011;36176;51.506;10.272;2022-08-11T16:22:51;4.97;;;3.15;;
50281;SDS011;36176;51.506;10.272;2022-08-11T16:25:28;4.30;;;1.92;;
50281;SDS011;36176;51.506;10.272;2022-08-11T16:28:38;2.47;;;1.50;;
50281;SDS011;36176;51.506;10.272;2022-08-11T16:31:24;5.50;;;1.77;;
50281;SDS011;36176;51.506;10.272;2022-08-11T16:34:02;4.38;;;1.90;;
50281;SDS011;36176;51.506;10.272;2022-08-11T16:36:31;4.00;;;1.90;;
50281;SDS011;36176;51.506;10.272;2022-08-11T16:39:18;7.20;;;2.00;;
50281;SDS011;36176;51.506;10.272;2022-08-11T16:41:46;2.70;;;1.70;;
50281;SDS011;36176;51.506;10.272;2022-08-11T16:44:53;7.97;;;2.60;;
50281;SDS011;36176;51.506;10.272;2022-08-11T16:47:41;2.85;;;2.00;;
50281;SDS011;36176;51.506;10.272;2022-08-11T16:50:30;5.68;;;5.15;;
50281;SDS011;36176;51.506;10.272;2022-08-11T16:52:58;6.22;;;3.95;;
50281;SDS011;36176;51.506;10.272;2022-08-11T16:55:25;3.47;;;1.88;;
50281;SDS011;36176;51.506;10.272;2022-08-11T16:58:17;6.50;;;2.10;;
50281;SDS011;36176;51.506;10.272;2022-08-11T17:01:05;5.43;;;1.90;;
50281;SDS011;36176;51.506;10.272;2022-08-11T17:03:33;2.65;;;1.90;;
50281;SDS011;36176;51.506;10.272;2022-08-11T17:06:25;2.47;;;2.10;;
50281;SDS011;36176;51.506;10.272;2022-08-11T17:09:11;4.15;;;2.22;;
50281;SDS011;36176;51.506;10.272;2022-08-11T17:12:01;2.85;;;2.10;;
50281;SDS011;36176;51.506;10.272;2022-08-11T17:14:48;6.65;;;2.05;;
50281;SDS011;36176;51.506;10.272;2022-08-11T17:17:22;7.75;;;2.05;;
50281;SDS011;36176;51.506;10.272;2022-08-11T17:19:54;5.93;;;2.05;;
50281;SDS011;36176;51.506;10.272;2022-08-11T17:22:44;3.95;;;2.17;;
50281;SDS011;36176;51.506;10.272;2022-08-11T17:25:31;7.93;;;2.53;;
50281;SDS011;36176;51.506;10.272;2022-08-11T17:28:19;2.97;;;2.00;;
50281;SDS011;36176;51.506;10.272;2022-08-11T17:30:51;6.13;;;2.42;;
50281;SDS011;36176;51.506;10.272;2022-08-11T17:33:50;8.07;;;2.10;;
50281;SDS011;36176;51.506;10.272;2022-08-11T17:36:36;3.72;;;1.80;;
50281;SDS011;36176;51.506;10.272;2022-08-11T17:39:11;4.97;;;2.58;;
50281;SDS011;36176;51.506;10.272;2022-08-11T17:41:40;6.07;;;2.20;;
50281;SDS011;36176;51.506;10.272;2022-08-11T17:44:27;7.38;;;1.98;;
50281;SDS011;36176;51.506;10.272;2022-08-11T17:47:16;3.45;;;1.92;;
50281;SDS011;36176;51.506;10.272;2022-08-11T17:50:04;6.03;;;2.10;;
50281;SDS011;36176;51.506;10.272;2022-08-11T17:52:43;3.00;;;1.77;;
50281;SDS011;36176;51.506;10.272;2022-08-11T17:55:30;9.90;;;1.95;;
50281;SDS011;36176;51.506;10.272;2022-08-11T17:58:22;2.80;;;1.92;;
50281;SDS011;36176;51.506;10.272;2022-08-11T18:01:09;5.63;;;1.88;;
50281;SDS011;36176;51.506;10.272;2022-08-11T18:03:39;4.53;;;1.90;;
50281;SDS011;36176;51.506;10.272;2022-08-11T18:06:24;7.50;;;2.00;;
50281;SDS011;36176;51.506;10.272;2022-08-11T18:09:01;4.00;;;1.70;;
50281;SDS011;36176;51.506;10.272;2022-08-11T18:11:49;6.00;;;2.00;;
50281;SDS011;36176;51.506;10.272;2022-08-11T18:14:39;3.22;;;1.70;;
50281;SDS011;36176;51.506;10.272;2022-08-11T18:17:29;4.93;;;1.85;;
50281;SDS011;36176;51.506;10.272;2022-08-11T18:20:17;7.25;;;2.05;;
50281;SDS011;36176;51.506;10.272;2022-08-11T18:23:04;5.57;;;2.10;;
50281;SDS011;36176;51.506;10.272;2022-08-11T18:26:12;3.83;;;2.10;;
50281;SDS011;36176;51.506;10.272;2022-08-11T18:29:04;2.00;;;1.80;;
50281;SDS011;36176;51.506;10.272;2022-08-11T18:31:52;4.03;;;2.00;;
50281;SDS011;36176;51.506;10.272;2022-08-11T18:34:51;2.78;;;1.80;;
50281;SDS011;36176;51.506;10.272;2022-08-11T18:37:42;4.53;;;1.98;;
50281;SDS011;36176;51.506;10.272;2022-08-11T18:40:31;3.28;;;1.80;;
50281;SDS011;36176;51.506;10.272;2022-08-11T18:43:20;6.22;;;2.05;;
50281;SDS011;36176;51.506;10.272;2022-08-11T18:46:09;4.82;;;2.05;;
50281;SDS011;36176;51.506;10.272;2022-08-11T18:48:58;2.83;;;1.88;;
50281;SDS011;36176;51.506;10.272;2022-08-11T18:51:49;4.38;;;2.05;;
50281;SDS011;36176;51.506;10.272;2022-08-11T18:54:38;3.53;;;1.95;;
50281;SDS011;36176;51.506;10.272;2022-08-11T18:57:26;5.85;;;2.00;;
50281;SDS011;36176;51.506;10.272;2022-08-11T19:00:20;4.63;;;2.17;;
50281;SDS011;36176;51.506;10.272;2022-08-11T19:03:09;13.65;;;2.47;;
50281;SDS011;36176;51.506;10.272;2022-08-11T19:06:09;19.35;;;2.63;;
50281;SDS011;36176;51.506;10.272;2022-08-11T19:09:07;13.43;;;2.50;;
50281;SDS011;36176;51.506;10.272;2022-08-11T19:11:58;11.95;;;2.45;;
50281;SDS011;36176;51.506;10.272;2022-08-11T19:14:46;5.15;;;2.30;;
50281;SDS011;36176;51.506;10.272;2022-08-11T19:17:37;9.10;;;2.17;;
50281;SDS011;36176;51.506;10.272;2022-08-11T19:20:24;18.60;;;2.80;;
50281;SDS011;36176;51.506;10.272;2022-08-11T19:23:14;11.95;;;2.45;;
50281;SDS011;36176;51.506;10.272;2022-08-11T19:26:04;11.25;;;2.60;;
50281;SDS011;36176;51.506;10.272;2022-08-11T19:28:52;33.08;;;3.25;;
50281;SDS011;36176;51.506;10.272;2022-08-11T19:31:59;48.97;;;4.10;;
50281;SDS011;36176;51.506;10.272;2022-08-11T19:34:45;89.40;;;5.65;;
50281;SDS011;36176;51.506;10.272;2022-08-11T19:37:32;32.13;;;3.60;;
50281;SDS011;36176;51.506;10.272;2022-08-11T19:40:19;11.18;;;2.50;;
50281;SDS011;36176;51.506;10.272;2022-08-11T19:43:06;13.48;;;2.95;;
50281;SDS011;36176;51.506;10.272;2022-08-11T19:45:55;8.05;;;2.63;;
50281;SDS011;36176;51.506;10.272;2022-08-11T19:48:43;34.67;;;3.40;;
50281;SDS011;36176;51.506;10.272;2022-08-11T19:51:30;32.78;;;3.88;;
50281;SDS011;36176;51.506;10.272;2022-08-11T19:54:23;32.08;;;4.57;;
50281;SDS011;36176;51.506;10.272;2022-08-11T19:57:11;35.60;;;4.00;;
50281;SDS011;36176;51.506;10.272;2022-08-11T20:00:23;29.55;;;4.18;;
50281;SDS011;36176;51.506;10.272;2022-08-11T20:03:12;15.88;;;3.15;;
50281;SDS011;36176;51.506;10.272;2022-08-11T20:06:00;19.95;;;3.17;;
50281;SDS011;36176;51.506;10.272;2022-08-11T20:08:49;15.38;;;3.35;;
50281;SDS011;36176;51.506;10.272;2022-08-11T20:11:47;13.90;;;3.15;;
50281;SDS011;36176;51.506;10.272;2022-08-11T20:14:43;11.73;;;2.70;;
50281;SDS011;36176;51.506;10.272;2022-08-11T20:17:32;6.03;;;2.63;;
50281;SDS011;36176;51.506;10.272;2022-08-11T20:20:22;12.27;;;3.30;;
50281;SDS011;36176;51.506;10.272;2022-08-11T20:23:12;12.63;;;2.70;;
50281;SDS011;36176;51.506;10.272;2022-08-11T20:26:02;9.45;;;2.80;;
50281;SDS011;36176;51.506;10.272;2022-08-11T20:28:57;10.57;;;2.88;;
50281;SDS011;36176;51.506;10.272;2022-08-11T20:31:44;3.45;;;2.28;;
50281;SDS011;36176;51.506;10.272;2022-08-11T20:34:35;5.18;;;2.60;;
50281;SDS011;36176;51.506;10.272;2022-08-11T20:37:24;2.85;;;2.40;;
50281;SDS011;36176;51.506;10.272;2022-08-11T20:40:17;7.78;;;2.20;;
50281;SDS011;36176;51.506;10.272;2022-08-11T20:43:07;7.05;;;2.53;;
50281;SDS011;36176;51.506;10.272;2022-08-11T20:46:16;5.82;;;2.80;;
50281;SDS011;36176;51.506;10.272;2022-08-11T20:49:07;4.43;;;2.38;;
50281;SDS011;36176;51.506;10.272;2022-08-11T20:52:10;6.05;;;2.47;;
50281;SDS011;36176;51.506;10.272;2022-08-11T20:54:57;4.22;;;2.20;;
50281;SDS011;36176;51.506;10.272;2022-08-11T20:57:52;2.28;;;2.08;;
50281;SDS011;36176;51.506;10.272;2022-08-11T21:00:45;5.25;;;2.22;;
50281;SDS011;36176;51.506;10.272;2022-08-11T21:03:44;3.00;;;2.38;;
50281;SDS011;36176;51.506;10.272;2022-08-11T21:06:36;6.13;;;2.70;;
50281;SDS011;36176;51.506;10.272;2022-08-11T21:09:25;3.15;;;2.53;;
50281;SDS011;36176;51.506;10.272;2022-08-11T21:12:32;2.63;;;2.10;;
50281;SDS011;36176;51.506;10.272;2022-08-11T21:15:22;3.63;;;2.20;;
50281;SDS011;36176;51.506;10.272;2022-08-11T21:18:37;5.40;;;2.30;;
50281;SDS011;36176;51.506;10.272;2022-08-11T21:21:25;5.53;;;2.38;;
50281;SDS011;36176;51.506;10.272;2022-08-11T21:24:16;5.18;;;2.45;;
50281;SDS011;36176;51.506;10.272;2022-08-11T21:27:08;3.55;;;2.65;;
50281;SDS011;36176;51.506;10.272;2022-08-11T21:29:59;2.67;;;2.47;;
50281;SDS011;36176;51.506;10.272;2022-08-11T21:32:46;4.20;;;2.75;;
50281;SDS011;36176;51.506;10.272;2022-08-11T21:35:33;6.15;;;2.63;;
50281;SDS011;36176;51.506;10.272;2022-08-11T21:38:20;6.10;;;2.40;;
50281;SDS011;36176;51.506;10.272;2022-08-11T21:41:06;4.53;;;2.40;;
50281;SDS011;36176;51.506;10.272;2022-08-11T21:43:52;3.37;;;2.30;;
50281;SDS011;36176;51.506;10.272;2022-08-11T21:46:39;4.40;;;2.20;;
50281;SDS011;36176;51.506;10.272;2022-08-11T21:49:25;5.70;;;2.30;;
50281;SDS011;36176;51.506;10.272;2022-08-11T21:52:14;3.37;;;2.67;;
50281;SDS011;36176;51.506;10.272;2022-08-11T21:55:00;3.70;;;2.27;;
50281;SDS011;36176;51.506;10.272;2022-08-11T21:57:46;4.13;;;2.30;;
50281;SDS011;36176;51.506;10.272;2022-08-11T22:00:33;3.00;;;2.60;;
50281;SDS011;36176;51.506;10.272;2022-08-11T22:03:19;4.53;;;2.60;;
50281;SDS011;36176;51.506;10.272;2022-08-11T22:06:16;5.90;;;2.67;;
50281;SDS011;36176;51.506;10.272;2022-08-11T22:09:02;5.17;;;2.47;;
50281;SDS011;36176;51.506;10.272;2022-08-11T22:11:49;3.53;;;2.43;;
50281;SDS011;36176;51.506;10.272;2022-08-11T22:14:55;2.43;;;2.23;;
50281;SDS011;36176;51.506;10.272;2022-08-11T22:17:42;4.60;;;2.40;;